Weather History for Juneau, WI

Change the Weather History Date:

Sunday, November 10, 2013

  Actual Average Record
Temperature  
Mean Temperature 41 °F -  
Max Temperature 45 °F 45 °F 64 °F (2010)
Min Temperature 37 °F 32 °F 6 °F (1986)
Degree Days  
Heating Degree Days 24    
Moisture  
Dew Point 25 °F    
Average Humidity 54    
Maximum Humidity 64    
Minimum Humidity 38    
Precipitation  
Precipitation 0.00 in - - ()
Sea Level Pressure  
Sea Level Pressure 30.21 in    
Wind  
Wind Speed 10 mph (WSW)    
Max Wind Speed 14 mph    
Max Gust Speed 23 mph    
Visibility 10 miles    
Events      
Averages and records for this station are not official NWS values.
T = Trace of Precipitation, MM = Missing Value Source: NWS Daily Summary

Daily Weather History Graph

Daily Weather History Graph

Search for Another Location

Airport:

Trip Planner

Search our weather history database for the weather conditions in past years. The results will help you decide how hot, cold, wet, or windy it might be!

Date:

Astronomy

Nov. 10, 2013 Rise Set
Actual Time 6:42 AM CST 4:34 PM CST
Civil Twilight 6:11 AM CST 5:05 PM CST
Nautical Twilight 5:37 AM CST 5:39 PM CST
Astronomical Twilight 5:03 AM CST 6:13 PM CST
Moon 12:51 PM CST (11/10) No Moon Set
Length of Visible Light 10h 53m
Length of Day
9h 52m
First Quarter, 56% of the Moon is Illuminated
Nov 10
First Quarter
Nov 17
Full
Nov 25
Last Quarter
Dec 2
New
Dec 9
First Quarter

Hourly Weather History & Observations

Time (CST) Temp. Windchill Dew Point Humidity Pressure Visibility Wind Dir Wind Speed Gust Speed Precip Events Conditions
12:15 AM 38.8 °F 32.1 °F 23.0 °F 53% 30.06 in 10.0 mi West 10.4 mph 19.6 mph N/A   Overcast
12:35 AM 38.8 °F 32.1 °F 23.7 °F 55% 30.07 in 10.0 mi West 10.4 mph 17.3 mph N/A   Overcast
12:55 AM 38.5 °F 30.3 °F 23.9 °F 56% 30.08 in 10.0 mi WNW 13.8 mph 20.7 mph N/A   Overcast
1:15 AM 38.8 °F 33.8 °F 23.7 °F 55% 30.09 in 10.0 mi West 6.9 mph 18.4 mph N/A   Overcast
1:35 AM 38.8 °F 33.2 °F 23.4 °F 54% 30.09 in 10.0 mi West 8.1 mph 19.6 mph N/A   Overcast
1:55 AM 38.3 °F 31.4 °F 24.6 °F 58% 30.09 in 10.0 mi West 10.4 mph 17.3 mph N/A   Overcast
2:15 AM 38.3 °F 31.4 °F 23.9 °F 56% 30.10 in 10.0 mi West 10.4 mph - N/A   Overcast
2:35 AM 38.3 °F 31.9 °F 23.7 °F 56% 30.11 in 10.0 mi West 9.2 mph 18.4 mph N/A   Overcast
2:55 AM 37.9 °F 32.1 °F 24.3 °F 58% 30.12 in 10.0 mi West 8.1 mph - N/A   Overcast
3:15 AM 38.3 °F 30.5 °F 23.9 °F 56% 30.12 in 10.0 mi West 12.7 mph 23.0 mph N/A   Overcast
3:35 AM 37.9 °F 31.5 °F 24.3 °F 58% 30.13 in 10.0 mi West 9.2 mph 21.9 mph N/A   Overcast
3:55 AM 38.3 °F 30.9 °F 24.3 °F 57% 30.14 in 10.0 mi West 11.5 mph - N/A   Overcast
4:15 AM 38.3 °F 30.5 °F 24.4 °F 57% 30.15 in 10.0 mi WNW 12.7 mph 19.6 mph N/A   Overcast
4:35 AM 38.3 °F 31.9 °F 24.8 °F 58% 30.16 in 10.0 mi WNW 9.2 mph 16.1 mph N/A   Overcast
4:55 AM 38.3 °F 31.4 °F 24.8 °F 58% 30.17 in 10.0 mi WNW 10.4 mph 16.1 mph N/A   Overcast
5:15 AM 38.3 °F 30.5 °F 24.4 °F 57% 30.18 in 10.0 mi WNW 12.7 mph 23.0 mph N/A   Overcast
5:35 AM 38.3 °F 31.4 °F 24.4 °F 57% 30.18 in 10.0 mi NW 10.4 mph 17.3 mph N/A   Overcast
5:55 AM 38.1 °F 31.7 °F 24.8 °F 59% 30.19 in 10.0 mi WNW 9.2 mph - N/A   Overcast
6:15 AM 38.1 °F 32.9 °F 24.8 °F 59% 30.20 in 10.0 mi WNW 6.9 mph - N/A   Overcast
6:35 AM 37.9 °F 32.1 °F 24.8 °F 59% 30.21 in 10.0 mi WNW 8.1 mph - N/A   Overcast
6:55 AM 38.3 °F 31.9 °F 25.3 °F 60% 30.24 in 10.0 mi WNW 9.2 mph - N/A   Overcast
7:15 AM 38.5 °F 32.7 °F 24.4 °F 57% 30.25 in 10.0 mi WNW 8.1 mph 16.1 mph N/A   Overcast
7:35 AM 38.5 °F 32.7 °F 24.6 °F 58% 30.25 in 10.0 mi WNW 8.1 mph - N/A   Overcast
7:55 AM 38.3 °F 31.9 °F 25.2 °F 59% 30.26 in 10.0 mi NW 9.2 mph - N/A   Overcast
8:15 AM 38.8 °F 32.6 °F 25.2 °F 58% 30.27 in 10.0 mi NW 9.2 mph - N/A   Overcast
8:35 AM 39.2 °F 32.5 °F 24.8 °F 56% 30.27 in 10.0 mi WNW 10.4 mph - N/A   Scattered Clouds
8:55 AM 40.1 °F 32.7 °F 23.7 °F 52% 30.28 in 10.0 mi NW 12.7 mph 18.4 mph N/A   Scattered Clouds
9:15 AM 40.3 °F 33.9 °F 22.6 °F 49% 30.29 in 10.0 mi NW 10.4 mph 17.3 mph N/A   Scattered Clouds
9:35 AM 41.5 °F 35.4 °F 23.2 °F 48% 30.29 in 10.0 mi NW 10.4 mph 16.1 mph N/A   Scattered Clouds
9:55 AM 41.0 °F 35.8 °F 23.0 °F 49% 30.29 in 10.0 mi NW 8.1 mph - N/A   Scattered Clouds
10:15 AM 41.4 °F 35.7 °F 22.8 °F 48% 30.29 in 10.0 mi NW 9.2 mph - N/A   Scattered Clouds
10:35 AM 41.9 °F 35.9 °F 23.0 °F 47% 30.30 in 10.0 mi NW 10.4 mph - N/A   Clear
10:55 AM 42.4 °F 36.5 °F 23.0 °F 46% 30.30 in 10.0 mi WNW 10.4 mph - N/A   Clear
11:15 AM 42.8 °F 37.0 °F 23.0 °F 46% 30.30 in 10.0 mi WSW 10.4 mph - N/A   Clear
11:35 AM 42.8 °F 36.6 °F 21.6 °F 43% 30.29 in 10.0 mi WSW 11.5 mph - N/A   Clear
11:55 AM 43.3 °F 38.6 °F 22.8 °F 44% 30.29 in 10.0 mi WSW 8.1 mph - N/A   Clear
12:15 PM 43.9 °F 38.8 °F 22.3 °F 42% 30.28 in 10.0 mi West 9.2 mph - N/A   Clear
12:35 PM 44.2 °F 40.3 °F 21.6 °F 41% 30.27 in 10.0 mi SW 6.9 mph - N/A   Clear
12:55 PM 44.4 °F 39.5 °F 21.9 °F 41% 30.27 in 10.0 mi WSW 9.2 mph - N/A   Clear
1:15 PM 45.1 °F 40.3 °F 23.2 °F 42% 30.26 in 10.0 mi WSW 9.2 mph - N/A   Clear
1:35 PM 45.3 °F 41.1 °F 22.1 °F 40% 30.26 in 10.0 mi WSW 8.1 mph - N/A   Clear
1:55 PM 45.5 °F 41.3 °F 22.6 °F 41% 30.25 in 10.0 mi WSW 8.1 mph - N/A   Clear
2:15 PM 45.5 °F 39.6 °F 21.6 °F 39% 30.26 in 10.0 mi SW 12.7 mph 17.3 mph N/A   Clear
2:35 PM 45.5 °F 40.3 °F 21.0 °F 38% 30.25 in 10.0 mi SW 10.4 mph - N/A   Clear
2:55 PM 45.5 °F 39.6 °F 21.6 °F 39% 30.25 in 10.0 mi SW 12.7 mph - N/A   Clear
3:15 PM 45.5 °F 39.9 °F 24.3 °F 43% 30.25 in 10.0 mi SW 11.5 mph - N/A   Clear
3:35 PM 43.2 °F 36.6 °F 23.0 °F 45% 30.25 in 10.0 mi SW 12.7 mph - N/A   Clear
3:55 PM 43.3 °F 38.1 °F 23.9 °F 46% 30.24 in 10.0 mi SW 9.2 mph - N/A   Clear
4:15 PM 42.4 °F 38.1 °F 25.0 °F 50% 30.24 in 10.0 mi SW 6.9 mph - N/A   Clear
4:35 PM 42.4 °F 38.8 °F 24.6 °F 49% 30.24 in 10.0 mi SW 5.8 mph - N/A   Clear
4:55 PM 41.5 °F 37.8 °F 26.8 °F 56% 30.24 in 10.0 mi SSW 5.8 mph - N/A   Clear
5:15 PM 41.0 °F 37.1 °F 27.0 °F 57% 30.23 in 10.0 mi SSW 5.8 mph - N/A   Scattered Clouds
5:35 PM 41.0 °F 37.1 °F 27.0 °F 57% 30.23 in 10.0 mi SSW 5.8 mph - N/A   Mostly Cloudy
5:55 PM 40.5 °F 36.5 °F 28.2 °F 62% 30.23 in 10.0 mi SW 5.8 mph - N/A   Overcast
6:15 PM 41.5 °F 37.1 °F 27.0 °F 56% 30.23 in 10.0 mi SSW 6.9 mph - N/A   Mostly Cloudy
6:35 PM 41.4 °F 37.6 °F 27.9 °F 59% 30.22 in 10.0 mi SSW 5.8 mph - N/A   Mostly Cloudy
6:55 PM 41.0 °F 35.8 °F 28.9 °F 62% 30.22 in 10.0 mi SSW 8.1 mph - N/A   Overcast
7:15 PM 41.5 °F 36.4 °F 28.0 °F 59% 30.22 in 10.0 mi SSW 8.1 mph - N/A   Overcast
7:35 PM 41.9 °F 36.9 °F 27.9 °F 58% 30.20 in 10.0 mi SSW 8.1 mph - N/A   Overcast
7:55 PM 41.9 °F 36.9 °F 27.3 °F 56% 30.19 in 10.0 mi SW 8.1 mph - N/A   Overcast
8:15 PM 41.4 °F 37.6 °F 28.2 °F 60% 30.19 in 10.0 mi SSW 5.8 mph - N/A   Overcast
8:35 PM 41.2 °F 36.6 °F 28.4 °F 60% 30.19 in 10.0 mi SSW 6.9 mph - N/A   Overcast
8:55 PM 41.0 °F 37.1 °F 28.8 °F 62% 30.19 in 10.0 mi SSW 5.8 mph - N/A   Overcast
9:15 PM 41.0 °F 35.8 °F 28.4 °F 61% 30.18 in 10.0 mi SSW 8.1 mph - N/A   Overcast
9:35 PM 41.0 °F 36.4 °F 28.4 °F 61% 30.18 in 10.0 mi SSW 6.9 mph - N/A   Overcast
9:55 PM 41.0 °F 34.7 °F 28.6 °F 61% 30.17 in 10.0 mi SSW 10.4 mph - N/A   Overcast
10:15 PM 41.0 °F 35.8 °F 28.9 °F 62% 30.17 in 10.0 mi SSW 8.1 mph - N/A   Overcast
10:35 PM 40.8 °F 35.0 °F 28.8 °F 62% 30.16 in 10.0 mi SSW 9.2 mph - N/A   Overcast
10:55 PM 40.8 °F 34.1 °F 28.4 °F 61% 30.14 in 10.0 mi South 11.5 mph - N/A   Overcast
11:15 PM 40.6 °F 34.8 °F 28.9 °F 63% 30.14 in 10.0 mi SSW 9.2 mph - N/A   Overcast
11:35 PM 41.0 °F 35.8 °F 28.4 °F 61% 30.15 in 10.0 mi SW 8.1 mph - N/A   Overcast
11:55 PM 40.5 °F 35.1 °F 29.3 °F 64% 30.14 in 10.0 mi SW 8.1 mph - N/A   Overcast